sensor_id;sensor_type;location;lat;lon;timestamp;temperature;humidity
19847;DHT22;10084;50.518;8.588;2022-09-12T00:00:44;14.20;69.20
19847;DHT22;10084;50.518;8.588;2022-09-12T00:03:10;14.10;69.20
19847;DHT22;10084;50.518;8.588;2022-09-12T00:05:43;14.10;69.30
19847;DHT22;10084;50.518;8.588;2022-09-12T00:08:09;14.00;69.30
19847;DHT22;10084;50.518;8.588;2022-09-12T00:10:40;14.00;69.40
19847;DHT22;10084;50.518;8.588;2022-09-12T00:13:07;14.00;69.50
19847;DHT22;10084;50.518;8.588;2022-09-12T00:15:41;14.00;69.60
19847;DHT22;10084;50.518;8.588;2022-09-12T00:18:14;13.90;69.60
19847;DHT22;10084;50.518;8.588;2022-09-12T00:20:41;13.90;69.60
19847;DHT22;10084;50.518;8.588;2022-09-12T00:23:07;13.90;69.70
19847;DHT22;10084;50.518;8.588;2022-09-12T00:25:32;13.90;69.80
19847;DHT22;10084;50.518;8.588;2022-09-12T00:27:58;13.80;69.80
19847;DHT22;10084;50.518;8.588;2022-09-12T00:30:24;13.80;69.80
19847;DHT22;10084;50.518;8.588;2022-09-12T00:32:49;13.80;69.90
19847;DHT22;10084;50.518;8.588;2022-09-12T00:35:16;13.80;70.00
19847;DHT22;10084;50.518;8.588;2022-09-12T00:37:41;13.80;70.10
19847;DHT22;10084;50.518;8.588;2022-09-12T00:40:07;13.80;70.10
19847;DHT22;10084;50.518;8.588;2022-09-12T00:42:33;13.80;70.10
19847;DHT22;10084;50.518;8.588;2022-09-12T00:44:59;13.80;70.20
19847;DHT22;10084;50.518;8.588;2022-09-12T00:47:29;13.80;70.20
19847;DHT22;10084;50.518;8.588;2022-09-12T00:50:11;13.70;70.20
19847;DHT22;10084;50.518;8.588;2022-09-12T00:52:45;13.70;70.10
19847;DHT22;10084;50.518;8.588;2022-09-12T00:55:17;13.70;70.20
19847;DHT22;10084;50.518;8.588;2022-09-12T00:58:08;13.60;70.20
19847;DHT22;10084;50.518;8.588;2022-09-12T01:00:32;13.60;70.30
19847;DHT22;10084;50.518;8.588;2022-09-12T01:03:03;13.60;70.40
19847;DHT22;10084;50.518;8.588;2022-09-12T01:05:33;13.50;70.50
19847;DHT22;10084;50.518;8.588;2022-09-12T01:08:02;13.60;70.60
19847;DHT22;10084;50.518;8.588;2022-09-12T01:10:28;13.60;70.60
19847;DHT22;10084;50.518;8.588;2022-09-12T01:12:54;13.60;70.70
19847;DHT22;10084;50.518;8.588;2022-09-12T01:15:20;13.60;70.70
19847;DHT22;10084;50.518;8.588;2022-09-12T01:18:39;13.60;70.80
19847;DHT22;10084;50.518;8.588;2022-09-12T01:24:05;13.70;70.90
19847;DHT22;10084;50.518;8.588;2022-09-12T01:38:15;13.80;71.00
19847;DHT22;10084;50.518;8.588;2022-09-12T01:40:56;13.90;71.00
19847;DHT22;10084;50.518;8.588;2022-09-12T01:43:31;14.00;71.10
19847;DHT22;10084;50.518;8.588;2022-09-12T01:48:54;14.00;71.10
19847;DHT22;10084;50.518;8.588;2022-09-12T01:51:32;14.00;71.20
19847;DHT22;10084;50.518;8.588;2022-09-12T01:54:09;14.00;71.20
19847;DHT22;10084;50.518;8.588;2022-09-12T01:56:38;14.00;71.20
19847;DHT22;10084;50.518;8.588;2022-09-12T01:59:16;14.00;71.10
19847;DHT22;10084;50.518;8.588;2022-09-12T02:01:50;13.90;71.10
19847;DHT22;10084;50.518;8.588;2022-09-12T02:04:27;13.80;71.30
19847;DHT22;10084;50.518;8.588;2022-09-12T02:09:48;13.80;71.40
19847;DHT22;10084;50.518;8.588;2022-09-12T02:12:20;13.70;71.60
19847;DHT22;10084;50.518;8.588;2022-09-12T02:14:52;13.70;71.80
19847;DHT22;10084;50.518;8.588;2022-09-12T02:17:24;13.60;71.90
19847;DHT22;10084;50.518;8.588;2022-09-12T02:20:17;13.60;72.10
19847;DHT22;10084;50.518;8.588;2022-09-12T02:22:45;13.60;72.30
19847;DHT22;10084;50.518;8.588;2022-09-12T02:25:15;13.60;72.40
19847;DHT22;10084;50.518;8.588;2022-09-12T02:27:52;13.70;72.50
19847;DHT22;10084;50.518;8.588;2022-09-12T02:30:19;13.70;72.60
19847;DHT22;10084;50.518;8.588;2022-09-12T02:33:39;13.80;72.60
19847;DHT22;10084;50.518;8.588;2022-09-12T02:35:56;13.80;72.60
19847;DHT22;10084;50.518;8.588;2022-09-12T02:38:43;13.80;72.70
19847;DHT22;10084;50.518;8.588;2022-09-12T02:41:10;13.90;72.70
19847;DHT22;10084;50.518;8.588;2022-09-12T02:43:38;13.90;72.70
19847;DHT22;10084;50.518;8.588;2022-09-12T02:46:07;13.90;72.80
19847;DHT22;10084;50.518;8.588;2022-09-12T02:48:38;14.00;72.80
19847;DHT22;10084;50.518;8.588;2022-09-12T02:51:06;14.00;72.80
19847;DHT22;10084;50.518;8.588;2022-09-12T02:53:31;14.00;73.50
19847;DHT22;10084;50.518;8.588;2022-09-12T02:55:58;14.00;72.90
19847;DHT22;10084;50.518;8.588;2022-09-12T02:58:27;14.00;72.90
19847;DHT22;10084;50.518;8.588;2022-09-12T03:01:27;14.00;73.10
19847;DHT22;10084;50.518;8.588;2022-09-12T03:06:34;14.10;73.20
19847;DHT22;10084;50.518;8.588;2022-09-12T03:09:12;14.10;73.20
19847;DHT22;10084;50.518;8.588;2022-09-12T03:14:46;14.10;73.30
19847;DHT22;10084;50.518;8.588;2022-09-12T03:17:27;14.10;73.40
19847;DHT22;10084;50.518;8.588;2022-09-12T03:20:07;14.10;73.30
19847;DHT22;10084;50.518;8.588;2022-09-12T03:22:45;14.10;73.40
19847;DHT22;10084;50.518;8.588;2022-09-12T03:25:20;14.10;73.40
19847;DHT22;10084;50.518;8.588;2022-09-12T03:28:00;14.10;73.40
19847;DHT22;10084;50.518;8.588;2022-09-12T03:30:30;14.10;73.50
19847;DHT22;10084;50.518;8.588;2022-09-12T03:32:56;14.10;73.60
19847;DHT22;10084;50.518;8.588;2022-09-12T03:35:23;14.10;73.70
19847;DHT22;10084;50.518;8.588;2022-09-12T03:37:50;14.20;73.70
19847;DHT22;10084;50.518;8.588;2022-09-12T03:40:17;14.10;73.60
19847;DHT22;10084;50.518;8.588;2022-09-12T03:42:42;14.10;73.70
19847;DHT22;10084;50.518;8.588;2022-09-12T03:45:09;14.10;73.70
19847;DHT22;10084;50.518;8.588;2022-09-12T03:47:35;14.10;73.80
19847;DHT22;10084;50.518;8.588;2022-09-12T03:50:01;14.10;73.80
19847;DHT22;10084;50.518;8.588;2022-09-12T03:52:27;14.10;73.80
19847;DHT22;10084;50.518;8.588;2022-09-12T03:54:53;14.10;73.90
19847;DHT22;10084;50.518;8.588;2022-09-12T03:57:19;14.10;73.90
19847;DHT22;10084;50.518;8.588;2022-09-12T03:59:44;14.10;73.90
19847;DHT22;10084;50.518;8.588;2022-09-12T04:02:10;14.10;74.00
19847;DHT22;10084;50.518;8.588;2022-09-12T04:04:42;14.10;74.00
19847;DHT22;10084;50.518;8.588;2022-09-12T04:07:09;14.10;74.10
19847;DHT22;10084;50.518;8.588;2022-09-12T04:09:35;14.10;74.10
19847;DHT22;10084;50.518;8.588;2022-09-12T04:12:01;14.10;74.10
19847;DHT22;10084;50.518;8.588;2022-09-12T04:14:27;14.10;74.10
19847;DHT22;10084;50.518;8.588;2022-09-12T04:16:53;14.00;74.10
19847;DHT22;10084;50.518;8.588;2022-09-12T04:19:18;14.00;74.20
19847;DHT22;10084;50.518;8.588;2022-09-12T04:21:44;14.00;74.30
19847;DHT22;10084;50.518;8.588;2022-09-12T04:24:10;14.00;74.40
19847;DHT22;10084;50.518;8.588;2022-09-12T04:26:36;14.00;74.40
19847;DHT22;10084;50.518;8.588;2022-09-12T04:29:02;14.00;74.40
19847;DHT22;10084;50.518;8.588;2022-09-12T04:31:28;14.00;74.40
19847;DHT22;10084;50.518;8.588;2022-09-12T04:33:55;14.00;74.40
19847;DHT22;10084;50.518;8.588;2022-09-12T04:36:22;14.00;74.60
19847;DHT22;10084;50.518;8.588;2022-09-12T04:38:47;13.90;74.40
19847;DHT22;10084;50.518;8.588;2022-09-12T04:41:16;13.90;74.40
19847;DHT22;10084;50.518;8.588;2022-09-12T04:43:42;13.90;74.40
19847;DHT22;10084;50.518;8.588;2022-09-12T04:46:10;13.80;74.50
19847;DHT22;10084;50.518;8.588;2022-09-12T04:48:36;13.80;74.70
19847;DHT22;10084;50.518;8.588;2022-09-12T04:53:32;13.80;74.90
19847;DHT22;10084;50.518;8.588;2022-09-12T04:56:02;13.80;74.90
19847;DHT22;10084;50.518;8.588;2022-09-12T04:58:28;13.80;75.10
19847;DHT22;10084;50.518;8.588;2022-09-12T05:00:53;13.80;75.10
19847;DHT22;10084;50.518;8.588;2022-09-12T05:03:19;13.80;75.20
19847;DHT22;10084;50.518;8.588;2022-09-12T05:05:44;13.80;75.20
19847;DHT22;10084;50.518;8.588;2022-09-12T05:08:10;13.80;75.20
19847;DHT22;10084;50.518;8.588;2022-09-12T05:10:36;13.80;75.30
19847;DHT22;10084;50.518;8.588;2022-09-12T05:13:02;13.90;75.40
19847;DHT22;10084;50.518;8.588;2022-09-12T05:15:28;13.80;75.30
19847;DHT22;10084;50.518;8.588;2022-09-12T05:17:54;13.80;75.30
19847;DHT22;10084;50.518;8.588;2022-09-12T05:20:19;13.80;75.30
19847;DHT22;10084;50.518;8.588;2022-09-12T05:22:45;13.80;75.30
19847;DHT22;10084;50.518;8.588;2022-09-12T05:25:11;13.70;75.40
19847;DHT22;10084;50.518;8.588;2022-09-12T05:27:36;13.70;75.50
19847;DHT22;10084;50.518;8.588;2022-09-12T05:30:03;13.70;75.70
19847;DHT22;10084;50.518;8.588;2022-09-12T05:32:32;13.70;75.80
19847;DHT22;10084;50.518;8.588;2022-09-12T05:34:58;13.70;76.00
19847;DHT22;10084;50.518;8.588;2022-09-12T05:37:24;13.80;76.10
19847;DHT22;10084;50.518;8.588;2022-09-12T05:39:50;13.80;76.10
19847;DHT22;10084;50.518;8.588;2022-09-12T05:42:17;13.90;76.20
19847;DHT22;10084;50.518;8.588;2022-09-12T05:44:43;13.90;76.20
19847;DHT22;10084;50.518;8.588;2022-09-12T05:47:10;14.00;76.10
19847;DHT22;10084;50.518;8.588;2022-09-12T05:49:37;14.00;76.20
19847;DHT22;10084;50.518;8.588;2022-09-12T05:52:02;14.10;76.20
19847;DHT22;10084;50.518;8.588;2022-09-12T05:54:28;14.10;76.20
19847;DHT22;10084;50.518;8.588;2022-09-12T05:56:54;14.20;76.20
19847;DHT22;10084;50.518;8.588;2022-09-12T05:59:21;14.20;76.10
19847;DHT22;10084;50.518;8.588;2022-09-12T06:01:48;14.20;76.00
19847;DHT22;10084;50.518;8.588;2022-09-12T06:04:14;14.20;76.30
19847;DHT22;10084;50.518;8.588;2022-09-12T06:06:42;14.30;76.40
19847;DHT22;10084;50.518;8.588;2022-09-12T06:09:09;14.30;76.40
19847;DHT22;10084;50.518;8.588;2022-09-12T06:11:37;14.40;76.50
19847;DHT22;10084;50.518;8.588;2022-09-12T06:14:06;14.40;76.50
19847;DHT22;10084;50.518;8.588;2022-09-12T06:16:33;14.50;76.50
19847;DHT22;10084;50.518;8.588;2022-09-12T06:19:06;14.50;76.30
19847;DHT22;10084;50.518;8.588;2022-09-12T06:21:33;14.60;76.40
19847;DHT22;10084;50.518;8.588;2022-09-12T06:24:00;14.60;76.50
19847;DHT22;10084;50.518;8.588;2022-09-12T06:26:27;14.70;76.80
19847;DHT22;10084;50.518;8.588;2022-09-12T06:28:55;14.80;76.70
19847;DHT22;10084;50.518;8.588;2022-09-12T06:31:25;14.80;76.50
19847;DHT22;10084;50.518;8.588;2022-09-12T06:33:52;14.90;76.40
19847;DHT22;10084;50.518;8.588;2022-09-12T06:36:20;14.90;76.40
19847;DHT22;10084;50.518;8.588;2022-09-12T06:38:47;14.90;76.50
19847;DHT22;10084;50.518;8.588;2022-09-12T06:41:15;15.00;76.70
19847;DHT22;10084;50.518;8.588;2022-09-12T06:43:42;15.00;76.60
19847;DHT22;10084;50.518;8.588;2022-09-12T06:46:09;15.00;76.50
19847;DHT22;10084;50.518;8.588;2022-09-12T06:48:35;15.10;76.60
19847;DHT22;10084;50.518;8.588;2022-09-12T06:51:03;15.10;76.50
19847;DHT22;10084;50.518;8.588;2022-09-12T06:53:30;15.10;76.30
19847;DHT22;10084;50.518;8.588;2022-09-12T06:56:03;15.10;76.40
19847;DHT22;10084;50.518;8.588;2022-09-12T06:58:29;15.10;76.60
19847;DHT22;10084;50.518;8.588;2022-09-12T07:01:06;15.10;76.80
19847;DHT22;10084;50.518;8.588;2022-09-12T07:03:33;15.10;76.70
19847;DHT22;10084;50.518;8.588;2022-09-12T07:06:04;15.20;76.70
19847;DHT22;10084;50.518;8.588;2022-09-12T07:08:31;15.10;76.60
19847;DHT22;10084;50.518;8.588;2022-09-12T07:10:59;15.20;76.80
19847;DHT22;10084;50.518;8.588;2022-09-12T07:13:32;15.20;76.90
19847;DHT22;10084;50.518;8.588;2022-09-12T07:16:01;15.30;77.00
19847;DHT22;10084;50.518;8.588;2022-09-12T07:18:27;15.30;77.00
19847;DHT22;10084;50.518;8.588;2022-09-12T07:20:53;15.40;77.10
19847;DHT22;10084;50.518;8.588;2022-09-12T07:23:19;15.40;76.90
19847;DHT22;10084;50.518;8.588;2022-09-12T07:25:52;15.40;76.80
19847;DHT22;10084;50.518;8.588;2022-09-12T07:28:18;15.40;76.90
19847;DHT22;10084;50.518;8.588;2022-09-12T07:30:43;15.50;77.10
19847;DHT22;10084;50.518;8.588;2022-09-12T07:33:09;15.50;77.20
19847;DHT22;10084;50.518;8.588;2022-09-12T07:35:35;15.60;77.60
19847;DHT22;10084;50.518;8.588;2022-09-12T07:38:01;15.60;77.50
19847;DHT22;10084;50.518;8.588;2022-09-12T07:40:27;15.70;77.40
19847;DHT22;10084;50.518;8.588;2022-09-12T07:42:53;15.80;77.70
19847;DHT22;10084;50.518;8.588;2022-09-12T07:45:19;15.90;77.70
19847;DHT22;10084;50.518;8.588;2022-09-12T07:47:45;16.00;77.70
19847;DHT22;10084;50.518;8.588;2022-09-12T07:50:10;16.10;77.90
19847;DHT22;10084;50.518;8.588;2022-09-12T07:52:36;16.30;78.10
19847;DHT22;10084;50.518;8.588;2022-09-12T07:55:02;16.50;78.30
19847;DHT22;10084;50.518;8.588;2022-09-12T07:57:29;16.70;78.20
19847;DHT22;10084;50.518;8.588;2022-09-12T07:59:54;16.90;77.70
19847;DHT22;10084;50.518;8.588;2022-09-12T08:02:20;17.00;77.40
19847;DHT22;10084;50.518;8.588;2022-09-12T08:04:46;17.10;77.50
19847;DHT22;10084;50.518;8.588;2022-09-12T08:07:12;17.40;78.50
19847;DHT22;10084;50.518;8.588;2022-09-12T08:09:38;17.90;79.00
19847;DHT22;10084;50.518;8.588;2022-09-12T08:12:04;18.30;78.70
19847;DHT22;10084;50.518;8.588;2022-09-12T08:14:30;18.70;78.60
19847;DHT22;10084;50.518;8.588;2022-09-12T08:16:55;19.10;78.30
19847;DHT22;10084;50.518;8.588;2022-09-12T08:19:21;19.40;77.50
19847;DHT22;10084;50.518;8.588;2022-09-12T08:21:47;19.70;76.30
19847;DHT22;10084;50.518;8.588;2022-09-12T08:24:12;19.80;75.40
19847;DHT22;10084;50.518;8.588;2022-09-12T08:26:38;19.80;75.10
19847;DHT22;10084;50.518;8.588;2022-09-12T08:29:04;19.70;74.50
19847;DHT22;10084;50.518;8.588;2022-09-12T08:31:30;19.50;74.30
19847;DHT22;10084;50.518;8.588;2022-09-12T08:34:03;19.30;74.20
19847;DHT22;10084;50.518;8.588;2022-09-12T08:36:29;19.20;74.40
19847;DHT22;10084;50.518;8.588;2022-09-12T08:39:00;19.20;75.10
19847;DHT22;10084;50.518;8.588;2022-09-12T08:41:28;19.30;75.80
19847;DHT22;10084;50.518;8.588;2022-09-12T08:46:36;20.20;78.00
19847;DHT22;10084;50.518;8.588;2022-09-12T08:49:03;21.10;78.50
19847;DHT22;10084;50.518;8.588;2022-09-12T08:51:32;22.00;78.00
19847;DHT22;10084;50.518;8.588;2022-09-12T08:54:01;23.00;76.90
19847;DHT22;10084;50.518;8.588;2022-09-12T08:56:31;23.90;75.80
19847;DHT22;10084;50.518;8.588;2022-09-12T08:59:00;24.70;74.20
19847;DHT22;10084;50.518;8.588;2022-09-12T09:01:40;25.20;73.00
19847;DHT22;10084;50.518;8.588;2022-09-12T09:04:36;25.80;72.50
19847;DHT22;10084;50.518;8.588;2022-09-12T09:07:26;26.40;71.90
19847;DHT22;10084;50.518;8.588;2022-09-12T09:10:23;26.90;70.50
19847;DHT22;10084;50.518;8.588;2022-09-12T09:12:58;27.20;69.60
19847;DHT22;10084;50.518;8.588;2022-09-12T09:15:58;27.40;69.40
19847;DHT22;10084;50.518;8.588;2022-09-12T09:18:31;27.60;68.50
19847;DHT22;10084;50.518;8.588;2022-09-12T09:21:04;27.50;67.90
19847;DHT22;10084;50.518;8.588;2022-09-12T09:23:39;27.40;67.80
19847;DHT22;10084;50.518;8.588;2022-09-12T09:28:50;27.10;67.50
19847;DHT22;10084;50.518;8.588;2022-09-12T09:31:20;27.00;67.10
19847;DHT22;10084;50.518;8.588;2022-09-12T09:33:52;26.90;67.00
19847;DHT22;10084;50.518;8.588;2022-09-12T09:39:18;26.70;66.30
19847;DHT22;10084;50.518;8.588;2022-09-12T09:42:26;26.40;66.10
19847;DHT22;10084;50.518;8.588;2022-09-12T09:44:52;26.20;66.00
19847;DHT22;10084;50.518;8.588;2022-09-12T09:47:18;26.10;66.10
19847;DHT22;10084;50.518;8.588;2022-09-12T09:49:44;26.00;66.00
19847;DHT22;10084;50.518;8.588;2022-09-12T09:52:14;25.90;66.00
19847;DHT22;10084;50.518;8.588;2022-09-12T09:54:48;25.80;65.80
19847;DHT22;10084;50.518;8.588;2022-09-12T10:00:25;26.00;65.60
19847;DHT22;10084;50.518;8.588;2022-09-12T10:05:47;26.20;65.20
19847;DHT22;10084;50.518;8.588;2022-09-12T10:08:25;26.30;65.00
19847;DHT22;10084;50.518;8.588;2022-09-12T10:10:53;26.50;64.70
19847;DHT22;10084;50.518;8.588;2022-09-12T10:13:55;26.70;64.50
19847;DHT22;10084;50.518;8.588;2022-09-12T10:16:25;26.90;64.10
19847;DHT22;10084;50.518;8.588;2022-09-12T10:18:55;26.90;63.80
19847;DHT22;10084;50.518;8.588;2022-09-12T10:21:34;26.90;63.50
19847;DHT22;10084;50.518;8.588;2022-09-12T10:26:36;27.00;63.50
19847;DHT22;10084;50.518;8.588;2022-09-12T10:29:10;27.10;63.20
19847;DHT22;10084;50.518;8.588;2022-09-12T10:31:50;27.30;63.10
19847;DHT22;10084;50.518;8.588;2022-09-12T10:34:41;27.50;62.70
19847;DHT22;10084;50.518;8.588;2022-09-12T10:37:54;27.60;62.30
19847;DHT22;10084;50.518;8.588;2022-09-12T10:39:56;27.80;62.10
19847;DHT22;10084;50.518;8.588;2022-09-12T10:42:49;28.00;61.80
19847;DHT22;10084;50.518;8.588;2022-09-12T10:47:43;28.30;61.10
19847;DHT22;10084;50.518;8.588;2022-09-12T10:50:30;28.40;60.80
19847;DHT22;10084;50.518;8.588;2022-09-12T10:53:13;28.50;60.30
19847;DHT22;10084;50.518;8.588;2022-09-12T10:55:54;28.70;60.00
19847;DHT22;10084;50.518;8.588;2022-09-12T10:58:46;28.70;59.80
19847;DHT22;10084;50.518;8.588;2022-09-12T11:01:23;28.80;59.30
19847;DHT22;10084;50.518;8.588;2022-09-12T11:04:04;28.70;59.10
19847;DHT22;10084;50.518;8.588;2022-09-12T11:14:42;28.40;58.10
19847;DHT22;10084;50.518;8.588;2022-09-12T11:17:24;28.30;58.10
19847;DHT22;10084;50.518;8.588;2022-09-12T11:30:58;28.60;57.50
19847;DHT22;10084;50.518;8.588;2022-09-12T11:33:38;28.80;57.20
19847;DHT22;10084;50.518;8.588;2022-09-12T11:36:09;28.90;56.80
19847;DHT22;10084;50.518;8.588;2022-09-12T11:39:36;29.00;56.70
19847;DHT22;10084;50.518;8.588;2022-09-12T11:41:38;29.10;57.00
19847;DHT22;10084;50.518;8.588;2022-09-12T11:46:41;29.30;56.00
19847;DHT22;10084;50.518;8.588;2022-09-12T11:57:41;29.60;55.00
19847;DHT22;10084;50.518;8.588;2022-09-12T12:00:23;29.70;54.90
19847;DHT22;10084;50.518;8.588;2022-09-12T12:03:12;29.80;54.80
19847;DHT22;10084;50.518;8.588;2022-09-12T12:06:09;29.90;54.50
19847;DHT22;10084;50.518;8.588;2022-09-12T12:08:43;30.00;54.30
19847;DHT22;10084;50.518;8.588;2022-09-12T12:11:13;30.20;54.00
19847;DHT22;10084;50.518;8.588;2022-09-12T12:16:24;30.30;53.30
19847;DHT22;10084;50.518;8.588;2022-09-12T12:18:58;30.40;53.10
19847;DHT22;10084;50.518;8.588;2022-09-12T12:24:15;30.30;52.60
19847;DHT22;10084;50.518;8.588;2022-09-12T12:27:11;30.30;52.30
19847;DHT22;10084;50.518;8.588;2022-09-12T12:29:47;30.20;51.90
19847;DHT22;10084;50.518;8.588;2022-09-12T12:34:46;30.10;51.80
19847;DHT22;10084;50.518;8.588;2022-09-12T12:44:57;29.80;51.10
19847;DHT22;10084;50.518;8.588;2022-09-12T12:50:20;29.70;50.80
19847;DHT22;10084;50.518;8.588;2022-09-12T12:58:00;29.50;50.40
19847;DHT22;10084;50.518;8.588;2022-09-12T13:00:35;29.50;50.40
19847;DHT22;10084;50.518;8.588;2022-09-12T13:05:59;29.40;49.90
19847;DHT22;10084;50.518;8.588;2022-09-12T13:08:29;29.40;49.80
19847;DHT22;10084;50.518;8.588;2022-09-12T13:11:10;29.40;49.80
19847;DHT22;10084;50.518;8.588;2022-09-12T13:13:52;29.30;49.40
19847;DHT22;10084;50.518;8.588;2022-09-12T13:16:39;29.20;49.30
19847;DHT22;10084;50.518;8.588;2022-09-12T13:19:25;29.10;49.30
19847;DHT22;10084;50.518;8.588;2022-09-12T13:22:04;29.00;49.20
19847;DHT22;10084;50.518;8.588;2022-09-12T13:24:30;28.90;49.20
19847;DHT22;10084;50.518;8.588;2022-09-12T13:26:56;28.80;49.10
19847;DHT22;10084;50.518;8.588;2022-09-12T13:29:24;28.70;49.20
19847;DHT22;10084;50.518;8.588;2022-09-12T13:31:54;28.60;49.10
19847;DHT22;10084;50.518;8.588;2022-09-12T13:34:33;28.50;49.00
19847;DHT22;10084;50.518;8.588;2022-09-12T13:40:35;28.30;48.80
19847;DHT22;10084;50.518;8.588;2022-09-12T13:42:46;28.20;48.90
19847;DHT22;10084;50.518;8.588;2022-09-12T13:45:21;28.00;48.80
19847;DHT22;10084;50.518;8.588;2022-09-12T13:47:51;28.00;48.80
19847;DHT22;10084;50.518;8.588;2022-09-12T13:50:31;27.80;48.70
19847;DHT22;10084;50.518;8.588;2022-09-12T13:53:00;27.70;48.70
19847;DHT22;10084;50.518;8.588;2022-09-12T13:55:36;27.60;48.70
19847;DHT22;10084;50.518;8.588;2022-09-12T13:58:16;27.40;48.70
19847;DHT22;10084;50.518;8.588;2022-09-12T14:00:43;27.30;48.60
19847;DHT22;10084;50.518;8.588;2022-09-12T14:06:48;27.10;48.70
19847;DHT22;10084;50.518;8.588;2022-09-12T14:09:25;27.00;48.70
19847;DHT22;10084;50.518;8.588;2022-09-12T14:11:54;26.90;48.70
19847;DHT22;10084;50.518;8.588;2022-09-12T14:14:36;26.80;48.70
19847;DHT22;10084;50.518;8.588;2022-09-12T14:17:35;26.70;48.70
19847;DHT22;10084;50.518;8.588;2022-09-12T14:20:11;26.60;48.60
19847;DHT22;10084;50.518;8.588;2022-09-12T14:22:38;26.40;48.10
19847;DHT22;10084;50.518;8.588;2022-09-12T14:25:13;26.10;48.00
19847;DHT22;10084;50.518;8.588;2022-09-12T14:27:43;25.80;47.90
19847;DHT22;10084;50.518;8.588;2022-09-12T14:30:29;25.50;47.90
19847;DHT22;10084;50.518;8.588;2022-09-12T14:35:28;24.90;48.30
19847;DHT22;10084;50.518;8.588;2022-09-12T14:37:54;24.80;48.40
19847;DHT22;10084;50.518;8.588;2022-09-12T14:40:22;24.60;48.50
19847;DHT22;10084;50.518;8.588;2022-09-12T14:42:50;24.50;48.60
19847;DHT22;10084;50.518;8.588;2022-09-12T14:45:35;24.40;48.70
19847;DHT22;10084;50.518;8.588;2022-09-12T14:48:00;24.40;48.80
19847;DHT22;10084;50.518;8.588;2022-09-12T14:50:28;24.30;48.80
19847;DHT22;10084;50.518;8.588;2022-09-12T14:53:09;24.30;48.90
19847;DHT22;10084;50.518;8.588;2022-09-12T14:56:19;24.20;48.90
19847;DHT22;10084;50.518;8.588;2022-09-12T14:58:45;24.10;48.90
19847;DHT22;10084;50.518;8.588;2022-09-12T15:08:54;23.90;49.10
19847;DHT22;10084;50.518;8.588;2022-09-12T15:11:21;23.80;49.20
19847;DHT22;10084;50.518;8.588;2022-09-12T15:13:47;23.70;49.40
19847;DHT22;10084;50.518;8.588;2022-09-12T15:16:13;23.60;49.50
19847;DHT22;10084;50.518;8.588;2022-09-12T15:18:39;23.60;49.70
19847;DHT22;10084;50.518;8.588;2022-09-12T15:21:06;23.60;49.80
19847;DHT22;10084;50.518;8.588;2022-09-12T15:23:48;23.60;49.80
19847;DHT22;10084;50.518;8.588;2022-09-12T15:26:22;23.60;49.80
19847;DHT22;10084;50.518;8.588;2022-09-12T15:28:49;23.60;49.90
19847;DHT22;10084;50.518;8.588;2022-09-12T15:31:29;23.60;49.90
19847;DHT22;10084;50.518;8.588;2022-09-12T15:33:56;23.60;49.90
19847;DHT22;10084;50.518;8.588;2022-09-12T15:36:23;23.60;49.90
19847;DHT22;10084;50.518;8.588;2022-09-12T15:38:51;23.50;49.90
19847;DHT22;10084;50.518;8.588;2022-09-12T15:41:19;23.50;50.00
19847;DHT22;10084;50.518;8.588;2022-09-12T15:43:45;23.50;50.10
19847;DHT22;10084;50.518;8.588;2022-09-12T15:46:13;23.50;50.10
19847;DHT22;10084;50.518;8.588;2022-09-12T15:48:39;23.50;50.20
19847;DHT22;10084;50.518;8.588;2022-09-12T15:51:12;23.50;50.30
19847;DHT22;10084;50.518;8.588;2022-09-12T15:53:38;23.40;50.30
19847;DHT22;10084;50.518;8.588;2022-09-12T15:56:04;23.40;50.30
19847;DHT22;10084;50.518;8.588;2022-09-12T15:58:30;23.40;50.40
19847;DHT22;10084;50.518;8.588;2022-09-12T16:00:55;23.40;50.40
19847;DHT22;10084;50.518;8.588;2022-09-12T16:03:25;23.30;50.50
19847;DHT22;10084;50.518;8.588;2022-09-12T16:06:00;23.30;50.50
19847;DHT22;10084;50.518;8.588;2022-09-12T16:08:28;23.30;50.60
19847;DHT22;10084;50.518;8.588;2022-09-12T16:10:57;23.20;50.50
19847;DHT22;10084;50.518;8.588;2022-09-12T16:13:23;23.20;50.50
19847;DHT22;10084;50.518;8.588;2022-09-12T16:15:50;23.10;50.50
19847;DHT22;10084;50.518;8.588;2022-09-12T16:18:16;23.10;50.60
19847;DHT22;10084;50.518;8.588;2022-09-12T16:20:42;23.10;50.70
19847;DHT22;10084;50.518;8.588;2022-09-12T16:23:11;23.00;50.80
19847;DHT22;10084;50.518;8.588;2022-09-12T16:25:38;23.00;50.80
19847;DHT22;10084;50.518;8.588;2022-09-12T16:28:05;22.90;50.90
19847;DHT22;10084;50.518;8.588;2022-09-12T16:30:34;22.90;50.90
19847;DHT22;10084;50.518;8.588;2022-09-12T16:33:00;22.90;51.00
19847;DHT22;10084;50.518;8.588;2022-09-12T16:35:26;22.90;51.10
19847;DHT22;10084;50.518;8.588;2022-09-12T16:37:52;22.90;51.20
19847;DHT22;10084;50.518;8.588;2022-09-12T16:40:17;22.80;51.20
19847;DHT22;10084;50.518;8.588;2022-09-12T16:42:44;22.80;51.30
19847;DHT22;10084;50.518;8.588;2022-09-12T16:45:11;22.80;51.40
19847;DHT22;10084;50.518;8.588;2022-09-12T16:47:37;22.70;51.40
19847;DHT22;10084;50.518;8.588;2022-09-12T16:50:04;22.70;51.50
19847;DHT22;10084;50.518;8.588;2022-09-12T16:52:29;22.70;51.50
19847;DHT22;10084;50.518;8.588;2022-09-12T16:54:55;22.70;51.60
19847;DHT22;10084;50.518;8.588;2022-09-12T16:57:21;22.60;51.60
19847;DHT22;10084;50.518;8.588;2022-09-12T16:59:48;22.60;51.60
19847;DHT22;10084;50.518;8.588;2022-09-12T17:02:14;22.60;51.70
19847;DHT22;10084;50.518;8.588;2022-09-12T17:04:40;22.50;51.80
19847;DHT22;10084;50.518;8.588;2022-09-12T17:07:07;22.50;51.90
19847;DHT22;10084;50.518;8.588;2022-09-12T17:09:33;22.40;51.90
19847;DHT22;10084;50.518;8.588;2022-09-12T17:11:59;22.40;52.00
19847;DHT22;10084;50.518;8.588;2022-09-12T17:14:25;22.40;52.10
19847;DHT22;10084;50.518;8.588;2022-09-12T17:16:51;22.30;52.00
19847;DHT22;10084;50.518;8.588;2022-09-12T17:19:22;22.30;52.10
19847;DHT22;10084;50.518;8.588;2022-09-12T17:21:52;22.30;52.10
19847;DHT22;10084;50.518;8.588;2022-09-12T17:24:18;22.20;52.20
19847;DHT22;10084;50.518;8.588;2022-09-12T17:26:45;22.20;52.30
19847;DHT22;10084;50.518;8.588;2022-09-12T17:29:11;22.10;52.50
19847;DHT22;10084;50.518;8.588;2022-09-12T17:31:39;22.00;52.60
19847;DHT22;10084;50.518;8.588;2022-09-12T17:34:06;22.00;52.70
19847;DHT22;10084;50.518;8.588;2022-09-12T17:36:32;21.90;52.80
19847;DHT22;10084;50.518;8.588;2022-09-12T17:39:00;21.80;52.80
19847;DHT22;10084;50.518;8.588;2022-09-12T17:41:27;21.80;52.90
19847;DHT22;10084;50.518;8.588;2022-09-12T17:43:55;21.70;53.00
19847;DHT22;10084;50.518;8.588;2022-09-12T17:46:24;21.60;53.10
19847;DHT22;10084;50.518;8.588;2022-09-12T17:48:55;21.60;53.20
19847;DHT22;10084;50.518;8.588;2022-09-12T17:51:23;21.50;53.30
19847;DHT22;10084;50.518;8.588;2022-09-12T17:56:26;21.40;53.60